Latest METARs, TAFs and NOTAMs for MGGT


---------------------------------------------------------------------------
	(OBSERVATIONS)
MGGT 300100Z 18012KT 6000 FEW016 SCT200 21/18 Q1024 A3024 HZ=
MGGT 300000Z 18014KT 6000 FEW020 BKN200 22/18 Q1023 A3021 HZ=
MGGT 292300Z 22014KT 6000 FEW020TCU SCT200 24/18 Q1022 A3018
    HZ TCU ESE/SE=
---------------------------------------------------------------------------
	(TERMINAL AREA FORECAST)
MGGT 292300Z 3000/3024 VRB03KT 8000 FEW016 TX29/3020Z TN17/3012Z
    PROB30 3011/3013 00000KT 5000 BR SCT014
    BECMG 3015/3017 18006KT 8000 FEW018
    PROB30 TEMPO 3020/3024 VCTSRA SCT018 FEW025CB=
---------------------------------------------------------------------------
	(NOTAMS)


MGGT A0187/16 REF MGGT AD 2-27 ACFT STAND 3A CHG COORD 143513.74173N
    0903147.23383W. 01 FEB 17:30 2016 UNTIL PERM. CREATED: 01
    FEB 17:21 2016

MGGT A0188/16 REF MGGT AD 2-27 ACFT STAND 5A CHG COORD 143518.23955N
    0903145.69390W. 01 FEB 17:30 2016 UNTIL PERM. CREATED: 01
    JAN 15:31 2017

MGGT A0321/17 RWY 02 END ID LGT U/S DUE MAINT 20 FEB 22:00 UNTIL
    20 MAY 22:00

MGGT A0368/17 RNAV X RWY 02 PROCEDURE NOT AVBL RNAV W RWY 02
    PROCEDURE NOT AVBL RNAV X RWY 20 PROCEDURE GT599 NOT AVBL
    24 FEB 23:30 UNTIL 24 MAY 23:59

MGGT A0459/17 TWR FREQ 118.1MHZ AND 121.9MHZ OPR WITH PERSONNEL
    ON TRAINING. 09 MAR 19:03 2017 UNTIL 05 JUN 23:59 2017. CREATED:
    09 MAR 19:04 2017

MGGT A0477/17 AD GRASS CUTTING INPR AT GREEN AREA ACFT EXER CTN
    DUE MEN AND EQPT WORKING REQ ATC INSTRUCTIONS. DAILY 1530
    - 2300, 13 MAR 15:45 2017 UNTIL 13 JUN 23:00 2017. CREATED:
    13 MAR 15:50 2017

MGGT A0522/17 TRIGGER NOTAM - PERM GUATEMALA AIRAC AIP AMDT 2/17
    WEF 27 APR 2017. 27 APR 00:00 2017 UNTIL 10 MAY 23:59 2017.
    CREATED: 17 MAR 02:19 2017

MGGT A0547/17 ILS RWY 02 ID IAAI FREQ 110.1MHZ OPR BUT OSCILLANTING
    BTN 1.8NM DME AND 1NM FM GLIDE SLOPE. 21 MAR 20:18 2017 UNTIL
    21 JUN 23:59 2017. CREATED: 21 MAR 20:23 2017

MGGT A0675/17 RWY 02/20 CLSD DUE MEN AND EQPT WORKING DUE MAINT.
    FROM MON TO THU 0500/1100, 22 MAY 05:00 2017 UNTIL 22 AUG
    11:00 2017. CREATED: 10 APR 16:36 2017

MGGT A0687/17 PAPI RWY 20 U/S DUE MAINT. 14 APR 14:12 2017 UNTIL
    14 JUN 23:59 2017. CREATED: 14 APR 14:18 2017

MGGT A2953/15 INST APCH PROC VOR Y RWY 02 VOR Z RWY 02 FAF ULDES
    CHG ALT TO 6300 FT. 21 DEC 20:49 2015 UNTIL PERM. CREATED:
    21 DEC 20:49 2015

MGGT A2954/15 INST APCH PROC ILS Y RWY 02 ILS Z RWY 02 FAP VILAN
    CHG COORD TO 143004.10N 0903313.93W. 21 DEC 20:50 2015 UNTIL
    PERM. CREATED: 21 DEC 20:50 2015

MGGT F0011/08 [DEFENSE ENERGY SUPPORT CENTER ADVISORY] FUEL AVAILABILITY
    LIMITED BEGINNING MAY 3, 2008 DAILY VOLUME WILL BE REDUCED
    FOR GOVERNMENT CONTRACT FUEL (SP0600-05-D-0003). CALL AHEAD
    TO ENURE FUEL AVAILABILITY. STAFF DUTY OFFICER #DSN 427-8420.
    05 AUG 01:17 2020 UNTIL 05 AUG 30:17 2020

MGGT F0014/08 [DEFENSE ENERGY SUPPORT CENTER ADVISORY] FUEL AVAILABILITY
    LIMITED QUANTITY UNTIL FURTHER NOTICE. PHONE AHEAD FOR FUEL
    AVAILABILITY. 05 AUG 08:12 2020 UNTIL 06 AUG 10:12 2020

MGGT F0044/11 [DEFENSE ENERGY SUPPORT CENTER ADVISORY] FUEL AVAILABILITY
    HOURS OF SERVICE ARE NEW FUELING HOURS FROM 09:00 AM TO 4:00
    PM. ALL FUELINGS OUTSIDE THIS SCHEDULE, WILL BE PROVIDED
    AT THE SOUTH INTERNATIONAL RAMP SO THAT ANY PERMISSION MUST
    BE OBTAINED FROM DGAC (DIRECCION GENERAL DE AERONAUTICA CIVIL),
    BY ALL CUSTOMERS IN CASE IT IS NECESSARY. DLA ENERGY DUTY
    OFFICER'S TELEPHONE NUMBER IS 703-767-8420, DSN 427-8420.
    06 NOV 14:14 2020 UNTIL 08 NOV 30:14 2020

---------------------------------------------------------------------------